Time;durP1;ratioP1;P1;durP2;ratioP2;P2;SDS_P1;SDS_P2;PMS_P1;PMS_P2;Temp;Humidity;BMP_temperature;BMP_pressure;BME280_temperature;BME280_humidity;BME280_pressure;Samples;Min_cycle;Max_cycle;Signal;HPM_P1;HPM_P2
2023/11/03 00:01:34;;;;;;;1.60;1.08;;;;;;;14.61;73.18;97235.06;5074811;28;20048;-67
2023/11/03 00:04:09;;;;;;;2.50;1.08;;;;;;;14.53;74.16;97228.72;5074820;28;20094;-71
2023/11/03 00:06:43;;;;;;;1.02;1.02;;;;;;;14.42;74.84;97210.53;5074805;28;20063;-72
2023/11/03 00:09:15;;;;;;;2.78;0.88;;;;;;;14.37;74.97;97200.50;5074669;28;20044;-68
2023/11/03 00:11:44;;;;;;;0.30;0.30;;;;;;;14.19;75.30;97173.28;5074658;28;20048;-70
2023/11/03 00:14:12;;;;;;;0.82;0.82;;;;;;;14.27;75.15;97201.91;5074578;28;20044;-70
2023/11/03 00:16:41;;;;;;;1.05;1.02;;;;;;;14.11;75.53;97171.13;5074772;28;20045;-73
2023/11/03 00:19:12;;;;;;;1.10;1.00;;;;;;;14.21;75.29;97202.25;5074701;28;20045;-73
2023/11/03 00:21:40;;;;;;;1.45;1.08;;;;;;;14.19;75.85;97188.69;5074439;28;20282;-74
2023/11/03 00:24:10;;;;;;;1.80;1.43;;;;;;;14.04;76.01;97148.47;5074657;28;20044;-72
2023/11/03 00:26:39;;;;;;;0.93;0.90;;;;;;;14.23;75.74;97184.22;5074306;28;20379;-72
2023/11/03 00:29:09;;;;;;;0.65;0.65;;;;;;;14.17;76.33;97177.69;5090320;28;20043;-73
2023/11/03 00:31:38;;;;;;;;;;;;;;;14.09;76.48;97167.00;5074751;28;20044;-69
2023/11/03 00:34:07;;;;;;;0.73;0.73;;;;;;;14.04;76.84;97174.13;5074525;28;19920;-70
2023/11/03 00:36:39;;;;;;;0.50;0.50;;;;;;;14.05;77.29;97186.03;5074160;28;20041;-75
2023/11/03 00:39:12;;;;;;;0.52;0.52;;;;;;;13.97;77.88;97172.81;5074239;28;20052;-71
2023/11/03 00:41:41;;;;;;;0.57;0.57;;;;;;;13.89;77.99;97170.66;5072909;28;20494;-71
2023/11/03 00:44:11;;;;;;;0.65;0.65;;;;;;;13.84;78.21;97167.53;5074085;28;20094;-69
2023/11/03 00:46:39;;;;;;;;;;;;;;;13.82;78.70;97148.03;5074782;28;20122;-72
2023/11/03 00:49:09;;;;;;;0.70;0.70;;;;;;;13.82;78.31;97138.56;5074149;28;19927;-72
2023/11/03 00:51:40;;;;;;;;;;;;;;;13.82;78.40;97130.06;5074559;28;20049;-70
2023/11/03 00:54:09;;;;;;;20.02;1.42;;;;;;;13.81;78.20;97123.28;5073754;28;19920;-72
2023/11/03 00:56:39;;;;;;;2.95;1.17;;;;;;;13.79;78.10;97119.97;5074195;28;20478;-73
2023/11/03 00:59:08;;;;;;;0.85;0.85;;;;;;;13.78;78.64;97120.88;5072620;28;20094;-69
2023/11/03 01:01:38;;;;;;;2.30;0.55;;;;;;;13.75;78.33;97115.94;5074485;28;20037;-69
2023/11/03 01:04:09;;;;;;;1.73;0.98;;;;;;;13.74;78.43;97114.28;5074180;28;20052;-68
2023/11/03 01:07:16;;;;;;;0.80;0.80;;;;;;;13.76;77.67;97081.69;5073857;28;20047;-68
2023/11/03 01:09:46;;;;;;;0.65;0.65;;;;;;;13.80;77.82;97091.69;5073818;28;20072;-70
2023/11/03 01:12:15;;;;;;;0.57;0.50;;;;;;;13.82;77.46;97076.25;5089354;28;20052;-67
2023/11/03 01:14:44;;;;;;;1.38;0.82;;;;;;;13.81;77.35;97072.00;5072620;28;20064;-73
2023/11/03 01:17:16;;;;;;;0.60;0.60;;;;;;;13.90;77.19;97063.81;5073951;28;20052;-69
2023/11/03 01:19:45;;;;;;;0.40;0.40;;;;;;;13.98;76.17;97066.78;5073621;28;20123;-69
2023/11/03 01:22:19;;;;;;;0.55;0.55;;;;;;;14.05;75.47;97055.25;5073816;28;20048;-74
2023/11/03 01:24:51;;;;;;;0.55;0.55;;;;;;;14.10;75.46;97051.53;5072430;28;20520;-67
2023/11/03 01:27:22;;;;;;;0.65;0.65;;;;;;;14.12;75.42;97048.88;5074154;28;20071;-67
2023/11/03 01:29:51;;;;;;;0.77;0.70;;;;;;;14.16;74.81;97055.47;5073687;28;20065;-67
2023/11/03 01:32:21;;;;;;;0.40;0.40;;;;;;;14.20;75.10;97045.88;5074154;28;20588;-67
2023/11/03 01:34:51;;;;;;;0.50;0.50;;;;;;;14.30;73.78;97063.22;5073864;28;20045;-68
2023/11/03 01:37:21;;;;;;;0.60;0.60;;;;;;;14.41;73.31;97068.56;5073520;28;20123;-68
2023/11/03 01:39:50;;;;;;;0.50;0.50;;;;;;;14.52;72.74;97053.38;5073424;28;20119;-69
2023/11/03 01:42:19;;;;;;;0.55;0.55;;;;;;;14.59;72.61;97057.22;5073700;28;20047;-69
2023/11/03 01:44:48;;;;;;;0.88;0.80;;;;;;;14.59;72.25;97061.53;5072176;28;20497;-73
2023/11/03 01:47:17;;;;;;;0.50;0.50;;;;;;;14.62;71.75;97041.66;5073058;28;20032;-68
2023/11/03 01:49:46;;;;;;;0.83;0.70;;;;;;;14.62;72.20;97041.66;5073422;28;20050;-67
2023/11/03 01:52:15;;;;;;;0.45;0.45;;;;;;;14.65;71.65;97033.78;5072369;28;20288;-70
2023/11/03 01:54:46;;;;;;;0.82;0.82;;;;;;;14.71;71.11;97025.69;5072190;28;20044;-66
2023/11/03 01:57:15;;;;;;;0.50;0.50;;;;;;;14.75;70.90;97034.88;5089006;28;20052;-70
2023/11/03 01:59:44;;;;;;;1.37;1.27;;;;;;;14.81;70.94;97022.56;5072418;28;20041;-66
2023/11/03 02:02:14;;;;;;;1.40;0.60;;;;;;;14.76;70.42;97027.97;5073221;28;20289;-66
2023/11/03 02:04:43;;;;;;;0.60;0.60;;;;;;;14.80;70.35;97005.53;5073294;28;20060;-68
2023/11/03 02:07:12;;;;;;;1.02;1.00;;;;;;;14.85;70.21;97024.88;5075566;28;20044;-67
2023/11/03 02:09:42;;;;;;;0.73;0.68;;;;;;;14.85;70.11;97029.19;5077045;28;20068;-73
2023/11/03 02:12:12;;;;;;;0.35;0.35;;;;;;;14.85;70.12;97018.91;5077053;28;20032;-68
2023/11/03 02:14:41;;;;;;;1.45;0.80;;;;;;;14.85;69.88;97011.22;5075838;28;20379;-68
2023/11/03 02:17:10;;;;;;;1.20;0.97;;;;;;;14.81;69.81;97000.28;5077076;28;20036;-65
2023/11/03 02:19:39;;;;;;;0.77;0.77;;;;;;;14.81;69.35;96986.63;5076768;28;20044;-67
2023/11/03 02:22:08;;;;;;;0.40;0.40;;;;;;;14.97;69.17;97002.78;5077157;28;20032;-65
2023/11/03 02:24:38;;;;;;;0.45;0.45;;;;;;;14.93;69.46;96996.16;5076808;28;20045;-66
2023/11/03 02:27:07;;;;;;;2.38;0.95;;;;;;;15.01;68.73;96989.63;5076894;28;20041;-66
2023/11/03 02:29:36;;;;;;;0.37;0.37;;;;;;;15.02;68.82;96980.19;5076912;28;20048;-70
2023/11/03 02:32:06;;;;;;;0.87;0.80;;;;;;;14.99;68.80;96991.47;5075474;28;20529;-68
2023/11/03 02:34:35;;;;;;;0.82;0.82;;;;;;;15.00;68.79;96976.88;5076936;28;20270;-66
2023/11/03 02:37:04;;;;;;;0.40;0.40;;;;;;;15.00;68.76;96969.16;5076860;28;20040;-71
2023/11/03 02:39:35;;;;;;;0.47;0.47;;;;;;;15.02;68.54;96969.94;5076567;28;20043;-68
2023/11/03 02:42:06;;;;;;;0.63;0.63;;;;;;;15.02;68.56;96962.22;5076765;28;20048;-67
2023/11/03 02:44:36;;;;;;;0.57;0.57;;;;;;;15.04;68.40;96944.97;5076446;28;20071;-70
2023/11/03 02:47:06;;;;;;;0.50;0.50;;;;;;;15.07;67.78;96934.50;5076414;28;20436;-68
2023/11/03 02:49:35;;;;;;;0.40;0.40;;;;;;;15.18;67.19;96947.50;5092250;28;20165;-70
2023/11/03 02:52:04;;;;;;;0.45;0.45;;;;;;;15.19;67.33;96946.56;5076193;28;20043;-68
2023/11/03 02:54:33;;;;;;;0.50;0.50;;;;;;;15.15;67.45;96929.69;5075063;28;20102;-67
2023/11/03 02:57:02;;;;;;;0.45;0.45;;;;;;;15.09;67.09;96938.59;5077064;28;20094;-71
2023/11/03 02:59:32;;;;;;;0.67;0.67;;;;;;;15.09;66.99;96914.69;5076224;28;20072;-68
2023/11/03 03:02:03;;;;;;;0.45;0.43;;;;;;;15.05;67.36;96931.19;5076481;28;20277;-66
2023/11/03 03:04:33;;;;;;;0.52;0.52;;;;;;;14.96;67.85;96908.66;5075196;28;20075;-66
2023/11/03 03:07:02;;;;;;;0.40;0.40;;;;;;;14.95;67.39;96917.28;5074981;28;20044;-71
2023/11/03 03:09:31;;;;;;;0.40;0.40;;;;;;;14.95;68.03;96905.25;5058051;28;20478;-68
2023/11/03 03:12:00;;;;;;;0.43;0.43;;;;;;;15.05;67.30;96900.34;5076240;28;20148;-70
2023/11/03 03:14:29;;;;;;;0.85;0.85;;;;;;;15.17;66.59;96881.59;5075016;28;20148;-66
2023/11/03 03:17:00;;;;;;;0.50;0.50;;;;;;;15.14;66.66;96871.53;5076225;28;20123;-69
2023/11/03 03:19:29;;;;;;;0.82;0.63;;;;;;;15.20;66.67;96887.38;5075850;28;20115;-66
2023/11/03 03:21:58;;;;;;;0.60;0.60;;;;;;;15.20;66.84;96892.53;5075706;28;20046;-73
2023/11/03 03:24:27;;;;;;;0.40;0.40;;;;;;;15.21;66.05;96883.88;5075747;28;20043;-69
2023/11/03 03:26:55;;;;;;;2.53;1.03;;;;;;;15.27;65.86;96890.38;5074643;28;20508;-66
2023/11/03 03:29:25;;;;;;;0.60;0.60;;;;;;;15.32;66.18;96907.16;5074758;28;20135;-70
2023/11/03 03:31:54;;;;;;;0.75;0.75;;;;;;;15.31;65.62;96890.06;5074349;28;20036;-69
2023/11/03 03:34:24;;;;;;;0.70;0.70;;;;;;;15.32;65.80;96896.03;5075586;28;20041;-69
2023/11/03 03:36:53;;;;;;;0.50;0.50;;;;;;;15.31;65.96;96907.22;5075808;28;20131;-71
2023/11/03 03:39:22;;;;;;;0.70;0.70;;;;;;;15.27;65.74;96892.94;5075445;28;20044;-68
2023/11/03 03:41:51;;;;;;;0.50;0.50;;;;;;;15.29;65.67;96898.81;5075696;28;20115;-69
2023/11/03 03:44:21;;;;;;;2.13;0.82;;;;;;;15.28;65.93;96892.84;5074300;28;20108;-68
2023/11/03 03:46:51;;;;;;;0.32;0.32;;;;;;;15.17;65.88;96868.75;5075763;28;20520;-72
2023/11/03 03:49:21;;;;;;;1.10;0.90;;;;;;;15.21;66.01;96883.06;5075426;28;20041;-67
2023/11/03 03:51:51;;;;;;;0.30;0.30;;;;;;;15.20;65.73;96881.41;5074729;28;20394;-67
2023/11/03 03:54:20;;;;;;;0.45;0.45;;;;;;;15.10;65.52;96875.22;5074158;28;20563;-66
2023/11/03 03:56:49;;;;;;;1.15;0.90;;;;;;;15.18;66.05;96873.00;5090714;28;20500;-69
2023/11/03 03:59:18;;;;;;;0.60;0.60;;;;;;;15.21;65.55;96903.63;5074026;28;20490;-73
2023/11/03 04:01:47;;;;;;;1.07;0.97;;;;;;;15.22;65.44;96900.13;5074876;28;20156;-68
2023/11/03 04:04:16;;;;;;;0.70;0.70;;;;;;;15.24;65.53;96909.38;5074788;28;20048;-68
2023/11/03 04:06:46;;;;;;;0.32;0.32;;;;;;;15.24;65.88;96908.53;5075266;28;20166;-68
2023/11/03 04:09:17;;;;;;;2.25;1.05;;;;;;;15.21;66.00;96903.63;5075369;28;20135;-70
2023/11/03 04:11:45;;;;;;;0.70;0.70;;;;;;;15.20;66.32;96881.41;5074814;28;20055;-69
2023/11/03 04:14:14;;;;;;;2.77;1.67;;;;;;;15.12;67.55;96904.19;5074819;28;20516;-70
2023/11/03 04:16:44;;;;;;;0.60;0.60;;;;;;;14.92;68.99;96896.94;5074591;28;20040;-68
2023/11/03 04:19:13;;;;;;;0.57;0.57;;;;;;;14.71;70.46;96889.63;5074583;28;20047;-69
2023/11/03 04:21:43;;;;;;;1.15;0.80;;;;;;;14.51;71.24;96874.66;5074624;28;20044;-68
2023/11/03 04:24:12;;;;;;;0.95;0.95;;;;;;;14.40;71.67;96879.59;5074744;28;20131;-71
2023/11/03 04:26:42;;;;;;;0.50;0.50;;;;;;;14.23;73.43;96877.19;5074381;28;20048;-66
2023/11/03 04:29:11;;;;;;;0.45;0.45;;;;;;;14.09;73.89;96877.19;5074175;28;20367;-65
2023/11/03 04:31:40;;;;;;;0.70;0.70;;;;;;;13.95;74.51;96857.53;5074645;28;20067;-69
2023/11/03 04:34:10;;;;;;;0.77;0.77;;;;;;;13.80;75.73;96858.41;5074550;28;20516;-68
2023/11/03 04:36:40;;;;;;;1.10;0.88;;;;;;;13.71;76.42;96842.75;5074270;28;20048;-69
2023/11/03 04:39:09;;;;;;;0.50;0.50;;;;;;;13.62;76.51;96843.31;5074463;28;20094;-68
2023/11/03 04:41:38;;;;;;;0.50;0.50;;;;;;;13.60;76.72;96832.31;5074813;28;20071;-68
2023/11/03 04:44:09;;;;;;;1.47;0.77;;;;;;;13.56;76.83;96828.25;5074360;28;20393;-66
2023/11/03 04:46:39;;;;;;;0.60;0.60;;;;;;;13.53;77.56;96823.34;5074366;28;20121;-70
2023/11/03 04:49:07;;;;;;;0.80;0.80;;;;;;;13.53;76.89;96813.09;5073762;28;20052;-70
2023/11/03 04:51:36;;;;;;;0.57;0.57;;;;;;;13.55;76.90;96785.63;5073961;28;20094;-68
2023/11/03 04:54:09;;;;;;;2.47;0.93;;;;;;;13.57;76.83;96783.81;5074244;28;20053;-67
2023/11/03 04:56:39;;;;;;;0.30;0.30;;;;;;;13.61;77.01;96769.88;5073871;28;20094;-69
2023/11/03 04:59:10;;;;;;;0.82;0.82;;;;;;;13.71;75.76;96778.69;5073842;28;20052;-71
2023/11/03 05:01:40;;;;;;;0.73;0.73;;;;;;;13.82;75.48;96763.50;5074149;28;20044;-68
2023/11/03 05:04:09;;;;;;;1.45;0.93;;;;;;;13.82;74.49;96748.91;5074137;28;20127;-69
2023/11/03 05:06:38;;;;;;;0.57;0.57;;;;;;;13.95;74.56;96770.34;5073737;28;20135;-66
2023/11/03 05:09:07;;;;;;;1.60;0.87;;;;;;;13.99;74.70;96765.84;5074015;28;20486;-69
2023/11/03 05:11:36;;;;;;;0.67;0.47;;;;;;;14.03;74.39;96736.56;5073813;28;20360;-68
2023/11/03 05:14:05;;;;;;;0.60;0.60;;;;;;;14.10;73.80;96737.81;5073686;28;20273;-68
2023/11/03 05:16:35;;;;;;;0.40;0.40;;;;;;;14.20;73.04;96744.03;5073656;28;20047;-71
2023/11/03 05:19:04;;;;;;;0.85;0.85;;;;;;;14.22;73.09;96757.56;5073672;28;20048;-68
2023/11/03 05:21:33;;;;;;;0.70;0.70;;;;;;;14.24;73.02;96765.16;5074054;28;20036;-68
2023/11/03 05:24:03;;;;;;;0.63;0.63;;;;;;;14.28;72.93;96749.47;5073607;28;20080;-69
2023/11/03 05:26:32;;;;;;;2.80;0.80;;;;;;;14.31;72.28;96736.50;5074038;28;20393;-68
2023/11/03 05:29:00;;;;;;;0.73;0.63;;;;;;;14.26;72.23;96735.94;5073848;28;20052;-72
2023/11/03 05:31:35;;;;;;;1.00;1.00;;;;;;;14.39;72.14;96764.25;5073605;28;20577;-69
2023/11/03 05:34:04;;;;;;;0.52;0.52;;;;;;;14.39;72.12;96752.25;5074216;28;20047;-67
2023/11/03 05:36:33;;;;;;;0.40;0.40;;;;;;;14.43;71.74;96756.25;5073448;28;20045;-68
2023/11/03 05:39:02;;;;;;;10.13;1.80;;;;;;;14.46;71.25;96753.50;5073791;28;20135;-68
2023/11/03 05:41:31;;;;;;;0.47;0.47;;;;;;;14.48;71.34;96756.81;5074802;28;20284;-69
2023/11/03 05:44:00;;;;;;;0.85;0.85;;;;;;;14.51;70.99;96763.47;5077882;28;20066;-71
2023/11/03 05:46:28;;;;;;;0.53;0.53;;;;;;;14.49;70.52;96755.84;5077456;28;20072;-68
2023/11/03 05:48:59;;;;;;;0.50;0.50;;;;;;;14.53;70.80;96757.34;5077579;28;20512;-70
2023/11/03 05:51:29;;;;;;;0.40;0.40;;;;;;;14.51;70.70;96748.09;5078606;28;20053;-70
2023/11/03 05:53:57;;;;;;;0.60;0.60;;;;;;;14.51;71.44;96754.03;5077727;28;20029;-68
2023/11/03 05:56:27;;;;;;;0.50;0.50;;;;;;;14.52;70.99;96742.84;5077283;28;20051;-67
2023/11/03 05:58:56;;;;;;;0.63;0.63;;;;;;;14.53;71.28;96751.38;5077581;28;20067;-68
2023/11/03 06:01:27;;;;;;;0.40;0.40;;;;;;;14.52;71.10;96739.44;5077536;28;20063;-72
2023/11/03 06:03:55;;;;;;;0.50;0.50;;;;;;;14.50;71.82;96747.25;5077446;28;20052;-67
2023/11/03 06:06:26;;;;;;;0.70;0.70;;;;;;;14.50;71.54;96724.16;5077093;28;20041;-72
2023/11/03 06:08:57;;;;;;;0.52;0.52;;;;;;;14.50;71.38;96724.16;5077309;28;20106;-69
2023/11/03 06:11:25;;;;;;;0.88;0.60;;;;;;;14.51;71.34;96740.38;5077270;28;20036;-70
2023/11/03 06:13:55;;;;;;;0.52;0.52;;;;;;;14.46;71.96;96735.53;5076019;28;20051;-69
2023/11/03 06:16:24;;;;;;;0.85;0.85;;;;;;;14.45;71.88;96728.75;5076812;28;20072;-70
2023/11/03 06:18:52;;;;;;;0.67;0.67;;;;;;;14.45;71.90;96728.75;5077051;28;20133;-69
2023/11/03 06:21:22;;;;;;;0.77;0.77;;;;;;;14.38;72.24;96732.63;5076925;28;20059;-71
2023/11/03 06:23:52;;;;;;;0.50;0.50;;;;;;;14.30;72.93;96724.59;5076826;28;20486;-70
2023/11/03 06:26:21;;;;;;;0.68;0.68;;;;;;;14.20;73.20;96733.78;5077212;28;20045;-70
2023/11/03 06:28:52;;;;;;;0.60;0.60;;;;;;;14.16;73.35;96731.50;5076497;28;20049;-68
2023/11/03 06:31:21;;;;;;;0.65;0.65;;;;;;;14.12;73.75;96712.91;5075707;28;20036;-67
2023/11/03 06:33:50;;;;;;;0.47;0.47;;;;;;;14.10;74.30;96702.75;5076619;28;20048;-67
2023/11/03 06:36:20;;;;;;;0.40;0.40;;;;;;;14.08;73.91;96714.00;5076831;28;20234;-73
2023/11/03 06:38:49;;;;;;;0.50;0.50;;;;;;;14.09;74.35;96707.94;5076474;28;20044;-69
2023/11/03 06:41:19;;;;;;;0.40;0.40;;;;;;;14.04;74.46;96689.47;5076485;28;20048;-69
2023/11/03 06:43:48;;;;;;;0.70;0.57;;;;;;;14.06;74.30;96695.31;5076576;28;20281;-70
2023/11/03 06:46:17;;;;;;;0.57;0.57;;;;;;;14.06;74.62;96685.06;5076607;28;20044;-71
2023/11/03 06:48:46;;;;;;;0.40;0.40;;;;;;;14.05;74.61;96694.50;5076039;28;20127;-67
2023/11/03 06:51:18;;;;;;;0.35;0.35;;;;;;;14.06;75.03;96690.19;5076009;28;20330;-67
2023/11/03 06:53:47;;;;;;;2.70;2.47;;;;;;;14.07;75.39;96691.84;5075613;28;20132;-70
2023/11/03 06:56:16;;;;;;;0.30;0.30;;;;;;;14.01;75.97;96693.03;5076215;28;20055;-72
2023/11/03 06:58:46;;;;;;;1.60;1.50;;;;;;;13.98;76.13;96657.34;5076125;28;20438;-71
2023/11/03 07:01:15;;;;;;;0.88;0.85;;;;;;;13.94;76.66;96694.34;5076458;28;20070;-68
2023/11/03 07:03:44;;;;;;;0.40;0.40;;;;;;;13.92;76.82;96703.03;5076410;28;20110;-70
2023/11/03 07:06:13;;;;;;;0.40;0.40;;;;;;;13.84;77.22;96712.97;5076352;28;20351;-71
2023/11/03 07:08:43;;;;;;;1.40;1.27;;;;;;;13.73;78.19;96720.47;5091452;28;20040;-70
2023/11/03 07:11:12;;;;;;;1.20;0.88;;;;;;;13.65;79.00;96704.75;5076535;28;20127;-70
2023/11/03 07:13:43;;;;;;;0.47;0.47;;;;;;;13.63;79.44;96702.25;5075891;28;20051;-68
2023/11/03 07:16:13;;;;;;;0.75;0.60;;;;;;;13.65;78.97;96704.75;5076445;28;20281;-66
2023/11/03 07:18:42;;;;;;;0.60;0.60;;;;;;;13.66;79.29;96721.75;5076197;28;20044;-67
2023/11/03 07:21:16;;;;;;;0.75;0.73;;;;;;;13.54;80.08;96707.94;5076072;28;20489;-65
2023/11/03 07:23:46;;;;;;;0.40;0.40;;;;;;;13.53;81.03;96721.69;5075566;28;20071;-73
2023/11/03 07:26:15;;;;;;;0.70;0.70;;;;;;;13.57;81.23;96706.94;5075840;28;20285;-69
2023/11/03 07:28:45;;;;;;;0.70;0.70;;;;;;;13.51;81.36;96709.88;5073898;28;20036;-71
2023/11/03 07:31:17;;;;;;;0.43;0.43;;;;;;;13.44;81.54;96707.69;5065584;28;20125;-64
2023/11/03 07:33:45;;;;;;;0.40;0.40;;;;;;;13.39;82.01;96694.31;5063924;28;20486;-65
2023/11/03 07:36:14;;;;;;;3.08;2.42;;;;;;;13.31;82.17;96681.16;5074503;28;20066;-65
2023/11/03 07:38:43;;;;;;;0.77;0.70;;;;;;;13.25;82.43;96694.31;5074316;28;20037;-63
2023/11/03 07:41:13;;;;;;;0.40;0.40;;;;;;;13.17;83.05;96688.81;5056235;28;20122;-66
2023/11/03 07:43:42;;;;;;;0.30;0.30;;;;;;;13.16;83.15;96687.19;5056957;28;20037;-66
2023/11/03 07:46:11;;;;;;;0.52;0.52;;;;;;;13.14;83.37;96678.78;5074567;28;20486;-74
2023/11/03 07:49:22;;;;;;;0.50;0.50;;;;;;;13.12;83.77;96701.09;5075162;28;20048;-68
2023/11/03 07:51:52;;;;;;;1.45;0.73;;;;;;;13.11;83.88;96696.88;5073934;28;20343;-65
2023/11/03 07:54:21;;;;;;;0.50;0.50;;;;;;;13.12;84.05;96685.72;5075771;28;20493;-66
2023/11/03 07:56:50;;;;;;;0.50;0.50;;;;;;;13.17;83.77;96682.91;5075493;28;20441;-66
2023/11/03 07:59:22;;;;;;;0.77;0.77;;;;;;;12.88;83.54;96641.06;5075344;28;20102;-71
2023/11/03 08:01:51;;;;;;;0.45;0.45;;;;;;;13.24;83.08;96697.81;5075258;28;20052;-66
2023/11/03 08:04:40;;;;;;;0.50;0.50;;;;;;;13.18;83.57;96690.47;5074094;28;20044;-64
2023/11/03 08:07:10;;;;;;;0.30;0.30;;;;;;;13.18;83.82;96716.09;5073041;28;20036;-67
2023/11/03 08:09:39;;;;;;;0.60;0.60;;;;;;;13.18;84.41;96705.00;5074160;28;20064;-66
2023/11/03 08:12:08;;;;;;;0.43;0.43;;;;;;;13.16;84.37;96715.34;5074685;28;20486;-65
2023/11/03 08:14:37;;;;;;;0.40;0.40;;;;;;;13.13;84.21;96702.72;5074919;28;20123;-67
2023/11/03 08:17:06;;;;;;;0.40;0.40;;;;;;;13.08;84.35;96688.53;5074637;28;20040;-67
2023/11/03 08:19:35;;;;;;;0.60;0.60;;;;;;;13.09;84.82;96683.34;5074519;28;20049;-67
2023/11/03 08:22:04;;;;;;;1.27;1.17;;;;;;;13.12;84.76;96705.38;5073941;28;20565;-68
2023/11/03 08:24:34;;;;;;;3.10;0.70;;;;;;;13.10;84.84;96699.53;5074757;28;20047;-66
2023/11/03 08:27:04;;;;;;;0.65;0.65;;;;;;;13.07;85.45;96697.16;5073305;28;20049;-67
2023/11/03 08:29:33;;;;;;;7.68;3.28;;;;;;;13.04;85.76;96698.13;5074548;28;20044;-66
2023/11/03 08:32:33;;;;;;;0.63;0.60;;;;;;;12.99;86.54;96687.31;5073104;28;20052;-68
2023/11/03 08:35:21;;;;;;;1.90;1.35;;;;;;;12.95;86.69;96680.75;5063008;28;20041;-68
2023/11/03 08:37:52;;;;;;;0.70;0.70;;;;;;;12.88;87.16;96674.31;5054563;28;20049;-68
2023/11/03 08:40:24;;;;;;;0.50;0.50;;;;;;;12.91;87.37;96676.69;5054677;28;20037;-66
2023/11/03 08:42:53;;;;;;;0.85;0.85;;;;;;;12.90;87.49;96669.94;5054312;28;20482;-66
2023/11/03 08:45:22;;;;;;;0.90;0.85;;;;;;;12.89;87.83;96683.63;5054387;28;20049;-67
2023/11/03 08:47:54;;;;;;;0.60;0.60;;;;;;;12.87;87.91;96669.28;5054193;28;20091;-65
2023/11/03 08:50:26;;;;;;;0.40;0.40;;;;;;;12.89;87.43;96673.41;5068690;28;20047;-66
2023/11/03 08:52:57;;;;;;;0.40;0.40;;;;;;;12.89;88.08;96659.78;5074046;28;20106;-67
2023/11/03 08:55:41;;;;;;;0.40;0.40;;;;;;;12.84;88.27;96654.94;5068498;28;20044;-67
2023/11/03 08:58:11;;;;;;;0.73;0.73;;;;;;;12.83;88.42;96648.19;5072910;28;20052;-65
2023/11/03 09:00:54;;;;;;;0.55;0.55;;;;;;;12.84;88.97;96649.81;5074219;28;20051;-69
2023/11/03 09:03:23;;;;;;;0.30;0.30;;;;;;;12.86;88.95;96637.75;5074211;28;20068;-69
2023/11/03 09:05:52;;;;;;;0.60;0.60;;;;;;;12.87;88.58;96639.41;5074355;28;20040;-70
2023/11/03 09:08:22;;;;;;;0.60;0.60;;;;;;;12.88;88.85;96674.31;5074209;28;20067;-67
2023/11/03 09:10:52;;;;;;;0.40;0.40;;;;;;;12.90;89.39;96680.19;5073430;28;20127;-68
2023/11/03 09:13:21;;;;;;;1.45;1.35;;;;;;;12.94;89.45;96681.63;5073749;28;20063;-68
2023/11/03 09:15:50;;;;;;;0.70;0.70;;;;;;;12.97;89.33;96691.72;5074299;28;20033;-67
2023/11/03 09:18:22;;;;;;;0.55;0.55;;;;;;;12.92;89.75;96695.44;5071190;28;20387;-69
2023/11/03 09:21:30;;;;;;;2.20;2.00;;;;;;;13.06;89.71;96716.78;5054838;28;20056;-69
2023/11/03 09:24:00;;;;;;;0.70;0.70;;;;;;;13.09;89.87;96721.75;5053853;28;20041;-72
2023/11/03 09:26:31;;;;;;;0.52;0.52;;;;;;;13.14;90.07;96736.84;5069062;28;20297;-68
2023/11/03 09:29:00;;;;;;;0.80;0.80;;;;;;;13.07;89.92;96748.34;5071980;28;20059;-69
2023/11/03 09:31:29;;;;;;;1.52;1.42;;;;;;;13.00;89.93;96742.72;5071333;28;20045;-69
2023/11/03 09:33:58;;;;;;;0.40;0.40;;;;;;;12.96;90.41;96760.88;5073575;28;20052;-70
2023/11/03 09:36:29;;;;;;;1.00;0.95;;;;;;;12.87;90.17;96746.88;5074107;28;20048;-69
2023/11/03 09:38:58;;;;;;;0.50;0.50;;;;;;;12.83;90.40;96759.94;5073557;28;20033;-68
2023/11/03 09:41:29;;;;;;;2.17;1.20;;;;;;;12.46;90.10;96720.25;5073671;28;20063;-70
2023/11/03 09:44:00;;;;;;;0.70;0.70;;;;;;;12.68;90.63;96772.69;5072180;28;20123;-68
2023/11/03 09:46:32;;;;;;;0.50;0.50;;;;;;;12.66;90.68;96774.53;5073277;28;20074;-68
2023/11/03 09:49:02;;;;;;;0.30;0.30;;;;;;;12.65;91.09;96782.25;5073151;28;20052;-67
2023/11/03 09:51:35;;;;;;;0.50;0.50;;;;;;;12.59;90.86;96797.97;5084460;28;20452;-67
2023/11/03 09:54:07;;;;;;;0.60;0.60;;;;;;;12.56;91.08;96810.91;5060516;28;20076;-69
2023/11/03 09:56:37;;;;;;;0.63;0.63;;;;;;;12.52;91.47;96822.22;5053794;28;20041;-66
2023/11/03 09:59:07;;;;;;;0.40;0.40;;;;;;;12.43;91.71;96827.84;5053468;28;20102;-67
2023/11/03 10:01:38;;;;;;;0.70;0.70;;;;;;;12.39;92.09;96834.03;5059345;28;20076;-67
2023/11/03 10:04:08;;;;;;;1.13;1.02;;;;;;;12.32;91.99;96832.69;5073215;28;20052;-69
2023/11/03 10:06:38;;;;;;;0.47;0.47;;;;;;;12.31;92.41;96833.63;5073210;28;20040;-68
2023/11/03 10:09:08;;;;;;;0.50;0.50;;;;;;;12.30;92.66;96826.84;5073088;28;20044;-67
2023/11/03 10:11:37;;;;;;;;;;;;;;;12.24;92.81;96824.63;5072349;28;20498;-69
2023/11/03 10:14:07;;;;;;;0.40;0.40;;;;;;;12.19;92.87;96813.81;5073488;28;20015;-68
2023/11/03 10:16:36;;;;;;;0.90;0.88;;;;;;;12.12;93.51;96792.03;5072961;28;20373;-69
2023/11/03 10:19:05;;;;;;;0.65;0.65;;;;;;;12.06;93.64;96773.56;5073100;28;20067;-66
2023/11/03 10:21:35;;;;;;;;;;;;;;;12.02;94.30;96764.41;5072300;28;20048;-66
2023/11/03 10:24:04;;;;;;;0.30;0.30;;;;;;;12.01;94.58;96739.75;5073411;28;19927;-67
2023/11/03 10:26:33;;;;;;;0.45;0.45;;;;;;;11.99;94.82;96730.53;5073237;28;20041;-66
2023/11/03 10:29:05;;;;;;;0.80;0.80;;;;;;;12.04;94.94;96729.34;5076243;28;20036;-67
2023/11/03 10:31:37;;;;;;;0.68;0.68;;;;;;;12.10;94.82;96720.53;5075924;28;20521;-67
2023/11/03 10:34:06;;;;;;;0.60;0.60;;;;;;;12.18;94.90;96689.44;5076541;28;20059;-66
2023/11/03 10:36:35;;;;;;;0.80;0.80;;;;;;;12.24;95.02;96668.66;5076597;28;20051;-67
2023/11/03 10:39:04;;;;;;;0.43;0.43;;;;;;;12.32;95.08;96648.59;5071016;28;20427;-65
2023/11/03 10:41:34;;;;;;;0.55;0.55;;;;;;;12.38;94.62;96622.69;5056631;28;20049;-67
2023/11/03 10:44:07;;;;;;;0.50;0.50;;;;;;;12.41;94.59;96612.25;5056291;28;20041;-67
2023/11/03 10:46:43;;;;;;;0.50;0.50;;;;;;;12.40;94.09;96597.84;5056447;28;20044;-67
2023/11/03 10:49:22;;;;;;;0.40;0.40;;;;;;;12.43;93.30;96574.66;5061562;28;20052;-66
2023/11/03 10:52:04;;;;;;;0.40;0.40;;;;;;;12.43;93.26;96559.31;5076406;28;20094;-65
2023/11/03 10:54:43;;;;;;;0.40;0.40;;;;;;;12.46;92.88;96518.19;5074985;28;20520;-67
2023/11/03 10:57:14;;;;;;;0.45;0.45;;;;;;;12.47;92.74;96481.50;5075230;28;20033;-67
2023/11/03 11:00:10;;;;;;;0.47;0.47;;;;;;;12.53;93.00;96476.00;5074935;28;20040;-65
2023/11/03 11:02:53;;;;;;;0.35;0.35;;;;;;;12.57;92.89;96503.06;5059462;28;20045;-64
2023/11/03 11:05:27;;;;;;;1.02;0.93;;;;;;;12.57;92.79;96538.88;5055981;28;20525;-65
2023/11/03 11:08:00;;;;;;;0.40;0.32;;;;;;;12.40;92.92;96542.41;5065155;28;20440;-64
2023/11/03 11:10:36;;;;;;;0.70;0.70;;;;;;;12.67;93.01;96580.88;5076303;28;20048;-66
2023/11/03 11:13:06;;;;;;;0.40;0.40;;;;;;;12.69;93.00;96590.13;5076789;28;20048;-66
2023/11/03 11:15:37;;;;;;;0.38;0.38;;;;;;;12.70;92.89;96578.16;5076012;28;20040;-67
2023/11/03 11:18:15;;;;;;;0.55;0.55;;;;;;;12.71;92.94;96592.59;5074612;28;20044;-66
2023/11/03 11:20:53;;;;;;;0.55;0.55;;;;;;;12.74;92.94;96623.13;5075119;28;20048;-66
2023/11/03 11:23:25;;;;;;;0.30;0.30;;;;;;;12.76;92.56;96632.34;5075824;28;20547;-67
2023/11/03 11:25:56;;;;;;;1.27;1.05;;;;;;;12.81;92.66;96614.19;5076059;28;20037;-67
2023/11/03 11:28:32;;;;;;;0.40;0.40;;;;;;;12.89;92.84;96636.75;5074927;28;20044;-69
2023/11/03 11:31:01;;;;;;;0.40;0.40;;;;;;;12.93;92.75;96625.44;5076133;28;20064;-68
2023/11/03 11:33:52;;;;;;;0.45;0.45;;;;;;;12.95;92.32;96586.03;5075505;28;20040;-66
2023/11/03 11:36:22;;;;;;;0.82;0.82;;;;;;;13.00;92.29;96601.94;5074373;28;20037;-66
2023/11/03 11:38:51;;;;;;;1.40;1.00;;;;;;;13.01;92.31;96626.59;5065056;28;20145;-69
2023/11/03 11:41:27;;;;;;;1.70;1.48;;;;;;;13.01;92.39;96608.69;5072628;28;20128;-65
2023/11/03 11:44:01;;;;;;;0.90;0.73;;;;;;;13.02;92.73;96623.16;5055549;28;20094;-67
2023/11/03 11:46:32;;;;;;;0.73;0.68;;;;;;;13.02;92.38;96633.38;5072316;28;20039;-66
2023/11/03 11:49:04;;;;;;;1.17;1.08;;;;;;;13.02;92.36;96638.50;5075178;28;20127;-68
2023/11/03 11:51:35;;;;;;;0.50;0.50;;;;;;;13.08;92.57;96648.41;5074336;28;20493;-64